地図

経路データ

SID SEASON NUMBER BASIN SUBBASIN NAME ISO_TIME NATURE LAT LON WMO_WIND WMO_PRES WMO_AGENCY TRACK_TYPE DIST2LAND LANDFALL IFLAG USA_AGENCY USA_ATCF_ID USA_LAT USA_LON USA_RECORD USA_STATUS USA_WIND USA_PRES USA_SSHS USA_R34_NE USA_R34_SE USA_R34_SW USA_R34_NW USA_R50_NE USA_R50_SE USA_R50_SW USA_R50_NW USA_R64_NE USA_R64_SE USA_R64_SW USA_R64_NW USA_POCI USA_ROCI USA_RMW USA_EYE TOKYO_LAT TOKYO_LON TOKYO_GRADE TOKYO_WIND TOKYO_PRES TOKYO_R50_DIR TOKYO_R50_LONG TOKYO_R50_SHORT TOKYO_R30_DIR TOKYO_R30_LONG TOKYO_R30_SHORT TOKYO_LAND CMA_LAT CMA_LON CMA_CAT CMA_WIND CMA_PRES HKO_LAT HKO_LON HKO_CAT HKO_WIND HKO_PRES NEWDELHI_LAT NEWDELHI_LON NEWDELHI_GRADE NEWDELHI_WIND NEWDELHI_PRES NEWDELHI_CI NEWDELHI_DP NEWDELHI_POCI REUNION_LAT REUNION_LON REUNION_TYPE REUNION_WIND REUNION_PRES REUNION_TNUM REUNION_CI REUNION_RMW REUNION_R34_NE REUNION_R34_SE REUNION_R34_SW REUNION_R34_NW REUNION_R50_NE REUNION_R50_SE REUNION_R50_SW REUNION_R50_NW REUNION_R64_NE REUNION_R64_SE REUNION_R64_SW REUNION_R64_NW BOM_LAT BOM_LON BOM_TYPE BOM_WIND BOM_PRES BOM_TNUM BOM_CI BOM_RMW BOM_R34_NE BOM_R34_SE BOM_R34_SW BOM_R34_NW BOM_R50_NE BOM_R50_SE BOM_R50_SW BOM_R50_NW BOM_R64_NE BOM_R64_SE BOM_R64_SW BOM_R64_NW BOM_ROCI BOM_POCI BOM_EYE BOM_POS_METHOD BOM_PRES_METHOD NADI_LAT NADI_LON NADI_CAT NADI_WIND NADI_PRES WELLINGTON_LAT WELLINGTON_LON WELLINGTON_WIND WELLINGTON_PRES DS824_LAT DS824_LON DS824_STAGE DS824_WIND DS824_PRES TD9636_LAT TD9636_LON TD9636_STAGE TD9636_WIND TD9636_PRES TD9635_LAT TD9635_LON TD9635_WIND TD9635_PRES TD9635_ROCI NEUMANN_LAT NEUMANN_LON NEUMANN_CLASS NEUMANN_WIND NEUMANN_PRES MLC_LAT MLC_LON MLC_CLASS MLC_WIND MLC_PRES USA_GUST BOM_GUST BOM_GUST_PER REUNION_GUST REUNION_GUST_PER USA_SEAHGT USA_SEARAD_NE USA_SEARAD_SE USA_SEARAD_SW USA_SEARAD_NW STORM_SPEED STORM_DIR
1924214N20115 1924 23 WP MM NOT_NAMED 1924-07-31 22:00:00 NR 20.0000 114.700 main 260 260 __________O___ -1 20.0000 114.700 4 3 207
1924214N20115 1924 23 WP MM NOT_NAMED 1924-08-01 00:00:00 NR 19.9215 114.663 main 271 270 __________P___ -1 19.9215 114.663 4 3 206
1924214N20115 1924 23 WP MM NOT_NAMED 1924-08-01 03:00:00 NR 19.8081 114.610 main 281 281 __________P___ -1 19.8081 114.610 4 2 205
1924214N20115 1924 23 WP MM NOT_NAMED 1924-08-01 06:00:00 NR 19.7062 114.559 main 292 291 __________P___ -1 19.7062 114.559 4 2 206
1924214N20115 1924 23 WP MM NOT_NAMED 1924-08-01 09:00:00 NR 19.6226 114.514 main 300 300 __________P___ -1 19.6226 114.514 4 2 207
1924214N20115 1924 23 WP MM NOT_NAMED 1924-08-01 10:00:00 NR 19.6000 114.500 main 300 300 __________O___ -1 19.6000 114.500 4 1 210
1924214N20115 1924 23 WP MM NOT_NAMED 1924-08-01 12:00:00 NR 19.5631 114.475 main 300 300 __________P___ -1 19.5631 114.475 4 1 215
1924214N20115 1924 23 WP MM NOT_NAMED 1924-08-01 15:00:00 NR 19.5206 114.444 main 305 305 __________P___ -1 19.5206 114.444 4 1 210
1924214N20115 1924 23 WP MM NOT_NAMED 1924-08-01 18:00:00 NR 19.4795 114.420 main 305 305 __________P___ -1 19.4795 114.420 4 1 203
1924214N20115 1924 23 WP MM NOT_NAMED 1924-08-01 21:00:00 NR 19.4243 114.404 main 315 315 __________P___ -1 19.4243 114.404 4 1 0
1924214N20115 1924 23 WP MM NOT_NAMED 1924-08-01 22:00:00 NR 19.4000 114.400 main 315 315 __________O___ -1 19.4000 114.400 4 2 189
1924214N20115 1924 23 WP MM NOT_NAMED 1924-08-02 00:00:00 NR 19.3285 114.389 main 325 325 __________P___ -1 19.3285 114.389 4 2 182
1924214N20115 1924 23 WP MM NOT_NAMED 1924-08-02 03:00:00 NR 19.2023 114.379 main 335 335 __________P___ -1 19.2023 114.379 4 3 185
1924214N20115 1924 23 WP MM NOT_NAMED 1924-08-02 06:00:00 NR 19.0671 114.379 main 345 345 __________P___ -1 19.0671 114.379 4 3 0
1924214N20115 1924 23 WP MM NOT_NAMED 1924-08-02 09:00:00 NR 18.9386 114.392 main 365 365 __________P___ -1 18.9386 114.392 4 3 175
1924214N20115 1924 23 WP MM NOT_NAMED 1924-08-02 10:00:00 NR 18.9000 114.400 main 365 365 __________O___ -1 18.9000 114.400 4 3 190
1924214N20115 1924 23 WP MM NOT_NAMED 1924-08-02 12:00:00 NR 18.8094 114.378 main 368 368 __________P___ -1 18.8094 114.378 4 3 188
1924214N20115 1924 23 WP MM NOT_NAMED 1924-08-02 15:00:00 NR 18.6856 114.356 main 371 371 __________P___ -1 18.6856 114.356 4 2 174
1924214N20115 1924 23 WP MM NOT_NAMED 1924-08-02 18:00:00 NR 18.6014 114.389 main 374 374 __________P___ -1 18.6014 114.389 4 2 123
1924214N20115 1924 23 WP MM NOT_NAMED 1924-08-02 21:00:00 NR 18.5853 114.524 main 384 384 __________P___ -1 18.5853 114.524 4 3 90
1924214N20115 1924 23 WP MM NOT_NAMED 1924-08-02 22:00:00 NR 18.6000 114.600 main 394 394 __________O___ -1 18.6000 114.600 4 6 77
1924214N20115 1924 23 WP MM NOT_NAMED 1924-08-03 00:00:00 NR 18.6556 114.840 main 404 402 __________P___ -1 18.6556 114.840 4 8 73
1924214N20115 1924 23 WP MM NOT_NAMED 1924-08-03 03:00:00 NR 18.8076 115.308 main 405 396 __________P___ -1 18.8076 115.308 4 10 68
1924214N20115 1924 23 WP MM NOT_NAMED 1924-08-03 06:00:00 NR 19.0276 115.837 main 400 383 __________P___ -1 19.0276 115.837 4 11 63
1924214N20115 1924 23 WP MM NOT_NAMED 1924-08-03 09:00:00 NR 19.3001 116.347 main 383 374 __________P___ -1 19.3001 116.347 4 11 59
1924214N20115 1924 23 WP MM NOT_NAMED 1924-08-03 10:00:00 NR 19.4000 116.500 main 376 358 __________O___ -1 19.4000 116.500 4 9 48
1924214N20115 1924 23 WP MM NOT_NAMED 1924-08-03 12:00:00 NR 19.5874 116.688 main 358 333 __________P___ -1 19.5874 116.688 4 8 38
1924214N20115 1924 23 WP MM NOT_NAMED 1924-08-03 15:00:00 NR 19.9068 116.919 main 333 299 __________P___ -1 19.9068 116.919 4 8 33
1924214N20115 1924 23 WP MM NOT_NAMED 1924-08-03 18:00:00 NR 20.2669 117.153 main 299 266 __________P___ -1 20.2669 117.153 4 9 34
1924214N20115 1924 23 WP MM NOT_NAMED 1924-08-03 21:00:00 NR 20.6617 117.466 main 266 260 __________P___ -1 20.6617 117.466 4 10 38
1924214N20115 1924 23 WP MM NOT_NAMED 1924-08-03 22:00:00 NR 20.8000 117.600 main 260 247 __________O___ -1 20.8000 117.600 4 13 47
1924214N20115 1924 23 WP MM NOT_NAMED 1924-08-04 00:00:00 NR 21.0883 117.958 main 253 207 __________P___ -1 21.0883 117.958 4 14 51
1924214N20115 1924 23 WP MM NOT_NAMED 1924-08-04 03:00:00 NR 21.5458 118.596 main 207 117 __________P___ -1 21.5458 118.596 4 16 54
1924214N20115 1924 23 WP MM NOT_NAMED 1924-08-04 06:00:00 NR 22.0109 119.312 main 117 20 __________P___ -1 22.0109 119.312 4 16 56
1924214N20115 1924 23 WP MM NOT_NAMED 1924-08-04 09:00:00 NR 22.4587 120.055 main 20 0 __________P___ -1 22.4587 120.055 4 16 57
1924214N20115 1924 23 WP MM NOT_NAMED 1924-08-04 10:00:00 NR 22.6000 120.300 main 0 0 __________O___ -1 22.6000 120.300 4 16 59
1924214N20115 1924 23 WP MM NOT_NAMED 1924-08-04 12:00:00 NR 22.8778 120.805 main 0 0 __________P___ -1 22.8778 120.805 4 16 60
1924214N20115 1924 23 WP MM NOT_NAMED 1924-08-04 15:00:00 NR 23.2697 121.563 main 20 20 __________P___ -1 23.2697 121.563 4 15 61
1924214N20115 1924 23 WP MM NOT_NAMED 1924-08-04 18:00:00 NR 23.6198 122.265 main 82 81 __________P___ -1 23.6198 122.265 4 13 61
1924214N20115 1924 23 WP MM NOT_NAMED 1924-08-04 21:00:00 NR 23.9155 122.845 main 113 115 __________P___ -1 23.9155 122.845 4 12 61
1924214N20115 1924 23 WP MM NOT_NAMED 1924-08-04 22:00:00 NR 24.0000 123.000 main 124 124 __________O___ -1 24.0000 123.000 4 9 57
1924214N20115 1924 23 WP MM NOT_NAMED 1924-08-05 00:00:00 NR 24.1443 123.237 main 139 145 __________P___ -1 24.1443 123.237 4 6 53
1924214N20115 1924 23 WP MM NOT_NAMED 1924-08-05 03:00:00 NR 24.3116 123.459 main 163 162 __________P___ -1 24.3116 123.459 4 4 45
1924214N20115 1924 23 WP MM NOT_NAMED 1924-08-05 06:00:00 NR 24.4419 123.563 main 172 167 __________P___ -1 24.4419 123.563 4 3 26
1924214N20115 1924 23 WP MM NOT_NAMED 1924-08-05 09:00:00 NR 24.5595 123.596 main 167 167 __________P___ -1 24.5595 123.596 4 2 14
1924214N20115 1924 23 WP MM NOT_NAMED 1924-08-05 10:00:00 NR 24.6000 123.600 main 167 164 __________O___ -1 24.6000 123.600 4 4 25
1924214N20115 1924 23 WP MM NOT_NAMED 1924-08-05 12:00:00 NR 24.7310 123.687 main 174 172 __________P___ -1 24.7310 123.687 4 4 27
1924214N20115 1924 23 WP MM NOT_NAMED 1924-08-05 15:00:00 NR 24.9283 123.781 main 181 181 __________P___ -1 24.9283 123.781 4 4 15
1924214N20115 1924 23 WP MM NOT_NAMED 1924-08-05 18:00:00 NR 25.0936 123.791 main 181 172 __________P___ -1 25.0936 123.791 4 3 339
1924214N20115 1924 23 WP MM NOT_NAMED 1924-08-05 21:00:00 NR 25.1897 123.675 main 172 162 __________P___ -1 25.1897 123.675 4 3 302
1924214N20115 1924 23 WP MM NOT_NAMED 1924-08-05 22:00:00 NR 25.2000 123.600 main 162 142 __________O___ -1 25.2000 123.600 4 5 264
1924214N20115 1924 23 WP MM NOT_NAMED 1924-08-06 00:00:00 NR 25.1613 123.377 main 142 90 __________P___ -1 25.1613 123.377 4 8 254
1924214N20115 1924 23 WP MM NOT_NAMED 1924-08-06 03:00:00 NR 25.0271 122.918 main 90 41 __________P___ -1 25.0271 122.918 4 10 251
1924214N20115 1924 23 WP MM NOT_NAMED 1924-08-06 06:00:00 NR 24.8427 122.366 main 46 0 __________P___ -1 24.8427 122.366 4 11 250
1924214N20115 1924 23 WP MM NOT_NAMED 1924-08-06 09:00:00 NR 24.6550 121.787 main 0 0 __________P___ -1 24.6550 121.787 4 11 251
1924214N20115 1924 23 WP MM NOT_NAMED 1924-08-06 10:00:00 NR 24.6000 121.600 main 0 0 __________O___ -1 24.6000 121.600 4 10 254
1924214N20115 1924 23 WP MM NOT_NAMED 1924-08-06 12:00:00 NR 24.5089 121.243 main 0 0 __________P___ -1 24.5089 121.243 4 10 256
1924214N20115 1924 23 WP MM NOT_NAMED 1924-08-06 15:00:00 NR 24.4131 120.748 main 0 0 __________P___ -1 24.4131 120.748 4 9 260
1924214N20115 1924 23 WP MM NOT_NAMED 1924-08-06 18:00:00 NR 24.3526 120.287 main 30 23 __________P___ -1 24.3526 120.287 4 8 263
1924214N20115 1924 23 WP MM NOT_NAMED 1924-08-06 21:00:00 NR 24.3119 119.845 main 60 60 __________P___ -1 24.3119 119.845 4 8 264
1924214N20115 1924 23 WP MM NOT_NAMED 1924-08-06 22:00:00 NR 24.3000 119.700 main 69 __________O___ -1 24.3000 119.700 4 8 265

デジタル台風データ・検索

IBTrACS Databaseについて

本データベースは、米国NOAAが公開する1842年以降の世界の熱帯低気圧のベストトラックデータアーカイブInternational Best Track Archive for Climate Stewardship (IBTrACS)を、ウェブで閲覧しやすい形式に変換したものです。

最終更新日:2021-12-01